createdAt,value
2023-01-06T00:01:17.075Z,58.77
2023-01-06T00:03:49.053Z,60.11
2023-01-06T00:06:16.440Z,59.92
2023-01-06T00:08:43.788Z,59.69
2023-01-06T00:11:13.206Z,59.14
2023-01-06T00:13:41.260Z,60.23
2023-01-06T00:16:13.617Z,59.39
2023-01-06T00:18:41.963Z,60.46
2023-01-06T00:21:09.735Z,59.96
2023-01-06T00:23:37.729Z,60.81
2023-01-06T00:26:06.755Z,60.38
2023-01-06T00:28:35.508Z,60.50
2023-01-06T00:31:11.204Z,60.52
2023-01-06T00:33:41.208Z,60.38
2023-01-06T00:36:10.925Z,59.71
2023-01-06T00:38:38.818Z,59.59
2023-01-06T00:41:29.575Z,59.29
2023-01-06T00:43:57.751Z,58.79
2023-01-06T00:46:29.177Z,60.45
2023-01-06T00:49:06.581Z,60.00
2023-01-06T00:51:36.644Z,59.78
2023-01-06T00:54:06.195Z,58.87
2023-01-06T00:56:36.985Z,59.33
2023-01-06T00:59:05.141Z,59.80
2023-01-06T01:01:33.524Z,60.33
2023-01-06T01:04:01.148Z,60.08
2023-01-06T01:06:28.863Z,60.16
2023-01-06T01:08:57.531Z,59.81
2023-01-06T01:11:44.063Z,60.91
2023-01-06T01:14:12.755Z,60.18
2023-01-06T01:16:40.829Z,59.51
2023-01-06T01:19:08.877Z,60.92
2023-01-06T01:21:36.688Z,59.33
2023-01-06T01:24:04.329Z,59.19
2023-01-06T01:26:31.818Z,58.78
2023-01-06T01:28:59.504Z,58.33
2023-01-06T01:31:26.967Z,57.90
2023-01-06T01:33:54.356Z,58.61
2023-01-06T01:36:22.300Z,59.49
2023-01-06T01:38:49.768Z,58.69
2023-01-06T01:41:21.442Z,58.21
2023-01-06T01:43:51.886Z,58.37
2023-01-06T01:46:27.119Z,58.31
2023-01-06T01:48:58.529Z,58.82
2023-01-06T01:51:31.064Z,58.39
2023-01-06T01:54:01.987Z,59.16
2023-01-06T01:56:31.820Z,59.45
2023-01-06T01:59:12.241Z,59.63
2023-01-06T02:01:39.795Z,59.27
2023-01-06T02:04:08.548Z,58.92
2023-01-06T02:06:36.260Z,58.53
2023-01-06T02:09:16.319Z,59.24
2023-01-06T02:11:45.144Z,59.75
2023-01-06T02:14:17.819Z,59.30
2023-01-06T02:16:45.415Z,59.13
2023-01-06T02:19:51.655Z,58.84
2023-01-06T02:22:31.086Z,58.27
2023-01-06T02:25:16.099Z,58.41
2023-01-06T02:28:11.044Z,58.72
2023-01-06T02:30:51.598Z,59.44
2023-01-06T02:33:27.506Z,59.03
2023-01-06T02:36:07.846Z,58.77
2023-01-06T02:38:57.299Z,58.84
2023-01-06T02:41:32.931Z,60.00
2023-01-06T02:44:38.191Z,59.58
2023-01-06T02:47:36.679Z,59.17
2023-01-06T02:50:25.520Z,59.05
2023-01-06T02:52:57.930Z,59.25
2023-01-06T02:55:29.448Z,58.63
2023-01-06T02:58:08.580Z,58.31
2023-01-06T03:00:40.817Z,57.65
2023-01-06T03:03:17.935Z,58.48
2023-01-06T03:05:47.703Z,58.10
2023-01-06T03:08:25.371Z,57.77
2023-01-06T03:10:53.935Z,59.09
2023-01-06T03:13:35.269Z,58.97
2023-01-06T03:16:03.239Z,58.47
2023-01-06T03:18:31.163Z,58.60
2023-01-06T03:21:01.708Z,58.16
2023-01-06T03:23:29.095Z,58.76
2023-01-06T03:25:56.827Z,58.70
2023-01-06T03:28:24.709Z,58.79
2023-01-06T03:31:15.382Z,58.36
2023-01-06T03:34:13.558Z,58.54
2023-01-06T03:37:09.076Z,58.48
2023-01-06T03:39:36.831Z,59.94
2023-01-06T03:42:36.434Z,59.91
2023-01-06T03:45:10.953Z,59.74
2023-01-06T03:47:52.725Z,59.91
2023-01-06T03:50:25.526Z,60.00
2023-01-06T03:53:01.104Z,60.04
2023-01-06T03:55:32.277Z,60.88
2023-01-06T03:58:01.009Z,60.78
2023-01-06T04:00:31.786Z,60.75
2023-01-06T04:03:00.761Z,59.80
2023-01-06T04:05:29.209Z,59.40
2023-01-06T04:07:57.268Z,59.36
2023-01-06T04:10:24.962Z,59.28
2023-01-06T04:12:52.945Z,59.10
2023-01-06T04:15:22.661Z,58.71
2023-01-06T04:17:51.400Z,58.81
2023-01-06T04:20:21.565Z,59.12
2023-01-06T04:22:49.382Z,59.51
2023-01-06T04:25:17.130Z,60.01
2023-01-06T04:27:44.571Z,60.06
2023-01-06T04:30:12.991Z,60.15
2023-01-06T04:32:40.787Z,61.00
2023-01-06T04:35:09.110Z,60.80
2023-01-06T04:37:37.074Z,60.46
2023-01-06T04:40:06.466Z,60.84
2023-01-06T04:42:54.196Z,61.29
2023-01-06T04:45:22.422Z,61.98
2023-01-06T04:47:49.844Z,63.13
2023-01-06T04:50:17.434Z,62.51
2023-01-06T04:52:45.057Z,61.78
2023-01-06T04:55:12.442Z,61.56
2023-01-06T04:57:39.899Z,61.13
2023-01-06T05:00:08.115Z,61.49
2023-01-06T05:02:35.469Z,60.77
2023-01-06T05:05:02.849Z,61.50
2023-01-06T05:07:30.604Z,60.71
2023-01-06T05:09:58.038Z,60.82
2023-01-06T05:12:25.490Z,61.00
2023-01-06T05:14:53.165Z,60.27
2023-01-06T05:17:20.546Z,60.41
2023-01-06T05:19:48.001Z,61.22
2023-01-06T05:22:15.663Z,62.48
2023-01-06T05:24:43.138Z,61.46
2023-01-06T05:27:10.607Z,61.71
2023-01-06T05:29:38.585Z,61.72
2023-01-06T05:32:06.227Z,61.89
2023-01-06T05:34:33.573Z,62.62
2023-01-06T05:37:01.199Z,62.51
2023-01-06T05:39:28.541Z,62.74
2023-01-06T05:41:55.933Z,62.62
2023-01-06T05:44:23.577Z,62.38
2023-01-06T05:46:50.970Z,61.55
2023-01-06T05:49:18.358Z,62.91
2023-01-06T05:51:46.044Z,63.14
2023-01-06T05:54:14.020Z,61.57
2023-01-06T05:56:41.476Z,61.65
2023-01-06T05:59:09.257Z,61.24
2023-01-06T06:01:36.792Z,60.78
2023-01-06T06:04:04.670Z,61.38
2023-01-06T06:06:32.122Z,61.99
2023-01-06T06:08:59.683Z,61.00
2023-01-06T06:11:27.358Z,60.52
2023-01-06T06:13:55.939Z,61.09
2023-01-06T06:16:25.766Z,61.25
2023-01-06T06:18:55.681Z,62.09
2023-01-06T06:21:25.757Z,63.44
2023-01-06T06:23:54.502Z,62.81
2023-01-06T06:26:22.187Z,63.26
2023-01-06T06:28:49.578Z,62.52
2023-01-06T06:31:22.878Z,63.28
2023-01-06T06:33:55.624Z,62.58
2023-01-06T06:36:24.132Z,61.82
2023-01-06T06:38:53.169Z,61.11
2023-01-06T06:41:21.434Z,61.19
2023-01-06T06:43:50.123Z,61.04
2023-01-06T06:46:18.532Z,60.81
2023-01-06T06:48:46.276Z,60.43
2023-01-06T06:51:16.974Z,60.28
2023-01-06T06:53:45.064Z,60.08
2023-01-06T06:56:13.660Z,60.17
2023-01-06T06:58:41.296Z,59.84
2023-01-06T07:01:14.436Z,59.78
2023-01-06T07:03:42.292Z,60.57
2023-01-06T07:06:15.021Z,61.07
2023-01-06T07:08:44.262Z,60.30
2023-01-06T07:11:11.785Z,59.81
2023-01-06T07:13:39.196Z,59.43
2023-01-06T07:16:07.495Z,59.51
2023-01-06T07:18:35.207Z,59.73
2023-01-06T07:21:02.879Z,63.00
2023-01-06T07:23:30.654Z,61.38
2023-01-06T07:26:00.233Z,61.16
2023-01-06T07:28:28.785Z,60.48
2023-01-06T07:30:56.559Z,60.82
2023-01-06T07:33:24.414Z,59.26
2023-01-06T07:35:55.832Z,59.18
2023-01-06T07:38:23.818Z,58.95
2023-01-06T07:40:51.665Z,59.42
2023-01-06T07:43:19.102Z,59.82
2023-01-06T07:45:48.057Z,60.17
2023-01-06T07:48:16.028Z,59.43
2023-01-06T07:50:43.766Z,59.23
2023-01-06T07:53:11.929Z,59.19
2023-01-06T07:55:39.402Z,59.21
2023-01-06T07:58:08.521Z,59.03
2023-01-06T08:00:36.584Z,59.35
2023-01-06T08:03:06.390Z,61.15
2023-01-06T08:05:41.835Z,60.58
2023-01-06T08:08:11.092Z,60.31
2023-01-06T08:10:40.494Z,60.55
2023-01-06T08:13:08.721Z,61.21
2023-01-06T08:15:37.339Z,60.16
2023-01-06T08:18:05.060Z,59.16
2023-01-06T08:20:34.050Z,59.10
2023-01-06T08:23:02.443Z,58.65
2023-01-06T08:25:29.899Z,58.97
2023-01-06T08:27:58.710Z,59.19
2023-01-06T08:30:26.579Z,59.34
2023-01-06T08:32:57.420Z,57.36
2023-01-06T08:35:25.512Z,55.54
2023-01-06T08:37:53.202Z,57.12
2023-01-06T08:40:20.586Z,55.89
2023-01-06T08:42:48.008Z,55.46
2023-01-06T08:45:15.775Z,54.84
2023-01-06T08:47:43.147Z,55.39
2023-01-06T08:50:10.544Z,54.56
2023-01-06T08:52:38.248Z,53.22
2023-01-06T08:55:05.973Z,54.79
2023-01-06T08:57:33.967Z,53.36
2023-01-06T09:00:02.060Z,52.96
2023-01-06T09:02:31.433Z,52.73
2023-01-06T09:04:58.973Z,53.76
2023-01-06T09:07:26.674Z,53.63
2023-01-06T09:09:54.208Z,54.04
2023-01-06T09:12:21.570Z,55.30
2023-01-06T09:14:49.267Z,53.36
2023-01-06T09:17:16.684Z,52.86
2023-01-06T09:19:44.080Z,53.38
2023-01-06T09:22:11.786Z,54.44
2023-01-06T09:24:39.443Z,55.38
2023-01-06T09:27:06.855Z,55.16
2023-01-06T09:29:34.590Z,55.22
2023-01-06T09:32:03.370Z,56.91
2023-01-06T09:34:30.993Z,56.99
2023-01-06T09:36:58.761Z,57.27
2023-01-06T09:39:27.057Z,57.45
2023-01-06T09:42:05.355Z,56.83
2023-01-06T09:45:01.774Z,56.27
2023-01-06T09:47:42.669Z,56.12
2023-01-06T09:50:17.697Z,56.25
2023-01-06T09:52:51.975Z,56.88
2023-01-06T09:55:31.315Z,57.03
2023-01-06T09:58:01.663Z,57.28
2023-01-06T10:00:32.288Z,57.10
2023-01-06T10:03:00.024Z,56.51
2023-01-06T10:05:42.839Z,57.17
2023-01-06T10:08:22.861Z,57.69
2023-01-06T10:11:12.103Z,57.99
2023-01-06T10:14:11.254Z,57.65
2023-01-06T10:16:49.409Z,58.33
2023-01-06T10:19:32.244Z,57.24
2023-01-06T10:22:11.177Z,57.86
2023-01-06T10:24:48.299Z,58.34
2023-01-06T10:27:18.359Z,57.87
2023-01-06T10:29:47.537Z,58.72
2023-01-06T10:32:17.199Z,58.12
2023-01-06T10:34:46.713Z,56.65
2023-01-06T10:37:17.313Z,56.74
2023-01-06T10:39:47.166Z,56.65
2023-01-06T10:42:50.340Z,55.89
2023-01-06T10:45:18.079Z,56.50
2023-01-06T10:47:45.940Z,56.03
2023-01-06T10:50:18.204Z,55.84
2023-01-06T10:52:47.012Z,55.13
2023-01-06T10:55:29.631Z,55.00
2023-01-06T10:58:01.455Z,55.02
2023-01-06T11:00:28.904Z,54.51
2023-01-06T11:03:19.679Z,55.29
2023-01-06T11:06:10.164Z,55.33
2023-01-06T11:08:38.789Z,55.60
2023-01-06T11:11:27.729Z,55.20
2023-01-06T11:13:58.869Z,55.13
2023-01-06T11:16:29.366Z,53.97
2023-01-06T11:19:00.750Z,53.92
2023-01-06T11:21:43.606Z,53.64
2023-01-06T11:24:24.025Z,54.05
2023-01-06T11:27:01.867Z,53.31
2023-01-06T11:29:35.777Z,53.82
2023-01-06T11:32:18.983Z,53.29
2023-01-06T11:35:02.693Z,52.59
2023-01-06T11:37:39.557Z,51.85
2023-01-06T11:40:28.298Z,52.45
2023-01-06T11:43:01.937Z,51.77
2023-01-06T11:45:36.119Z,52.05
2023-01-06T11:48:06.440Z,52.90
2023-01-06T11:50:34.154Z,53.21
2023-01-06T11:53:04.826Z,52.56
2023-01-06T11:55:32.251Z,51.62
2023-01-06T11:58:04.248Z,51.78
2023-01-06T12:00:55.315Z,51.14
2023-01-06T12:03:26.241Z,51.74
2023-01-06T12:06:01.577Z,52.05
2023-01-06T12:08:40.757Z,50.81
2023-01-06T12:11:17.352Z,50.00
2023-01-06T12:14:06.595Z,50.13
2023-01-06T12:16:39.235Z,50.19
2023-01-06T12:19:17.769Z,49.33
2023-01-06T12:21:45.177Z,50.08
2023-01-06T12:24:16.686Z,49.81
2023-01-06T12:26:44.561Z,49.73
2023-01-06T12:29:18.817Z,49.58
2023-01-06T12:32:04.970Z,50.06
2023-01-06T12:34:50.343Z,49.27
2023-01-06T12:37:27.595Z,49.79
2023-01-06T12:40:03.966Z,49.74
2023-01-06T12:42:36.453Z,49.53
2023-01-06T12:45:12.784Z,49.27
2023-01-06T12:47:48.725Z,49.15
2023-01-06T12:50:41.696Z,48.98
2023-01-06T12:53:23.019Z,48.83
2023-01-06T12:56:14.921Z,48.77
2023-01-06T12:59:06.646Z,49.06
2023-01-06T13:01:46.066Z,49.96
2023-01-06T13:04:35.739Z,50.20
2023-01-06T13:07:12.484Z,49.78
2023-01-06T13:10:01.804Z,50.15
2023-01-06T13:12:41.289Z,50.34
2023-01-06T13:15:35.463Z,50.93
2023-01-06T13:18:38.552Z,50.61
2023-01-06T13:21:11.471Z,50.39
2023-01-06T13:23:57.194Z,50.88
2023-01-06T13:26:52.916Z,51.51
2023-01-06T13:29:57.783Z,50.69
2023-01-06T13:32:34.057Z,50.41
2023-01-06T13:35:13.517Z,50.02
2023-01-06T13:37:55.332Z,49.94
2023-01-06T13:40:27.165Z,49.15
2023-01-06T13:43:04.158Z,49.90
2023-01-06T13:45:37.478Z,49.15
2023-01-06T13:48:09.136Z,56.64
2023-01-06T13:50:41.811Z,51.92
2023-01-06T13:53:20.794Z,50.55
2023-01-06T13:55:48.904Z,49.57
2023-01-06T13:58:30.609Z,49.52
2023-01-06T14:01:20.250Z,49.62
2023-01-06T14:03:50.215Z,49.22
2023-01-06T14:06:23.696Z,51.73
2023-01-06T14:08:53.895Z,50.08
2023-01-06T14:11:30.999Z,49.62
2023-01-06T14:14:00.591Z,49.51
2023-01-06T14:16:40.196Z,49.27
2023-01-06T14:19:13.202Z,49.12
2023-01-06T14:21:40.884Z,49.08
2023-01-06T14:24:20.438Z,49.19
2023-01-06T14:27:02.456Z,49.28
2023-01-06T14:29:42.266Z,49.66
2023-01-06T14:32:15.720Z,49.88
2023-01-06T14:34:51.812Z,50.20
2023-01-06T14:37:20.373Z,50.24
2023-01-06T14:39:50.472Z,50.37
2023-01-06T14:42:23.991Z,50.56
2023-01-06T14:44:53.734Z,50.89
2023-01-06T14:47:33.855Z,51.26
2023-01-06T14:50:07.979Z,51.74
2023-01-06T14:52:38.778Z,51.64
2023-01-06T14:55:17.627Z,51.97
2023-01-06T14:57:45.316Z,51.92
2023-01-06T15:00:23.959Z,52.51
2023-01-06T15:02:54.097Z,52.71
2023-01-06T15:05:42.024Z,52.74
2023-01-06T15:08:09.336Z,52.78
2023-01-06T15:10:39.733Z,53.16
2023-01-06T15:13:24.996Z,52.93
2023-01-06T15:16:20.340Z,52.95
2023-01-06T15:18:48.092Z,53.11
2023-01-06T15:21:17.816Z,53.69
2023-01-06T15:23:47.493Z,54.09
2023-01-06T15:26:21.019Z,54.39
2023-01-06T15:28:58.876Z,54.51
2023-01-06T15:31:27.253Z,54.76
2023-01-06T15:33:55.786Z,55.05
2023-01-06T15:36:24.175Z,62.28
2023-01-06T15:38:53.054Z,56.95
2023-01-06T15:41:32.750Z,55.35
2023-01-06T15:44:01.223Z,55.43
2023-01-06T15:46:40.889Z,55.49
2023-01-06T15:49:21.126Z,55.67
2023-01-06T15:51:55.347Z,55.60
2023-01-06T15:54:24.070Z,58.01
2023-01-06T15:56:51.807Z,56.27
2023-01-06T15:59:20.380Z,56.01
2023-01-06T16:01:50.369Z,57.19
2023-01-06T16:04:18.618Z,56.14
2023-01-06T16:06:46.110Z,56.00
2023-01-06T16:09:19.567Z,56.05
2023-01-06T16:12:04.047Z,56.02
2023-01-06T16:14:35.560Z,56.38
2023-01-06T16:17:15.519Z,56.62
2023-01-06T16:19:50.226Z,56.81
2023-01-06T16:22:43.728Z,56.92
2023-01-06T16:25:23.030Z,56.95
2023-01-06T16:27:51.959Z,57.17
2023-01-06T16:30:30.751Z,57.44
2023-01-06T16:33:00.321Z,57.52
2023-01-06T16:35:32.568Z,57.53
2023-01-06T16:38:00.738Z,57.55
2023-01-06T16:40:28.809Z,57.67
2023-01-06T16:43:01.060Z,57.71
2023-01-06T16:45:31.672Z,57.70
2023-01-06T16:47:59.117Z,57.68
2023-01-06T16:50:37.086Z,57.72
2023-01-06T16:53:12.200Z,57.90
2023-01-06T16:55:40.478Z,58.16
2023-01-06T16:58:18.129Z,59.42
2023-01-06T17:00:54.160Z,58.61
2023-01-06T17:03:22.803Z,58.30
2023-01-06T17:05:51.422Z,58.22
2023-01-06T17:08:25.899Z,58.46
2023-01-06T17:10:53.593Z,58.70
2023-01-06T17:13:36.563Z,58.74
2023-01-06T17:16:10.594Z,58.70
2023-01-06T17:18:51.236Z,59.00
2023-01-06T17:21:27.378Z,59.00
2023-01-06T17:24:06.282Z,59.22
2023-01-06T17:26:34.189Z,59.29
2023-01-06T17:29:02.113Z,59.08
2023-01-06T17:31:32.556Z,59.28
2023-01-06T17:34:31.619Z,58.98
2023-01-06T17:37:13.004Z,59.11
2023-01-06T17:39:43.558Z,59.22
2023-01-06T17:42:10.826Z,58.87
2023-01-06T17:44:50.578Z,58.85
2023-01-06T17:47:18.213Z,58.85
2023-01-06T17:49:59.068Z,59.03
2023-01-06T17:52:36.534Z,58.78
2023-01-06T17:55:44.779Z,58.91
2023-01-06T17:58:22.549Z,58.34
2023-01-06T18:00:49.993Z,58.56
2023-01-06T18:03:47.189Z,58.79
2023-01-06T18:06:30.199Z,58.96
2023-01-06T18:09:08.614Z,58.61
2023-01-06T18:11:39.190Z,58.42
2023-01-06T18:14:27.968Z,58.88
2023-01-06T18:16:57.293Z,59.12
2023-01-06T18:19:26.862Z,59.07
2023-01-06T18:21:54.600Z,58.58
2023-01-06T18:24:30.762Z,58.85
2023-01-06T18:27:00.960Z,58.82
2023-01-06T18:29:36.654Z,59.38
2023-01-06T18:32:26.301Z,59.37
2023-01-06T18:34:56.069Z,59.75
2023-01-06T18:37:26.444Z,60.35
2023-01-06T18:39:58.620Z,59.02
2023-01-06T18:42:29.314Z,58.92
2023-01-06T18:45:22.501Z,58.65
2023-01-06T18:47:55.631Z,59.03
2023-01-06T18:50:34.121Z,59.39
2023-01-06T18:53:41.284Z,59.20
2023-01-06T18:56:17.412Z,59.12
2023-01-06T18:58:54.737Z,59.04
2023-01-06T19:01:31.143Z,58.67
2023-01-06T19:04:18.785Z,58.69
2023-01-06T19:06:55.817Z,59.06
2023-01-06T19:09:33.786Z,59.02
2023-01-06T19:12:24.028Z,58.98
2023-01-06T19:14:52.838Z,59.39
2023-01-06T19:17:37.118Z,59.09
2023-01-06T19:20:14.570Z,58.89
2023-01-06T19:22:42.209Z,59.21
2023-01-06T19:25:33.285Z,59.41
2023-01-06T19:28:09.863Z,59.52
2023-01-06T19:30:45.547Z,59.25
2023-01-06T19:33:22.358Z,58.95
2023-01-06T19:35:58.466Z,59.48
2023-01-06T19:38:37.610Z,59.52
2023-01-06T19:41:12.046Z,59.06
2023-01-06T19:43:39.438Z,59.21
2023-01-06T19:46:24.179Z,59.60
2023-01-06T19:48:52.284Z,59.66
2023-01-06T19:51:24.283Z,59.82
2023-01-06T19:53:54.696Z,59.76
2023-01-06T19:56:34.600Z,60.00
2023-01-06T19:59:35.837Z,60.01
2023-01-06T20:02:09.608Z,60.12
2023-01-06T20:04:37.443Z,59.81
2023-01-06T20:07:04.840Z,59.33
2023-01-06T20:09:33.760Z,59.74
2023-01-06T20:12:01.881Z,59.46
2023-01-06T20:14:29.303Z,59.78
2023-01-06T20:16:57.633Z,59.79
2023-01-06T20:19:25.369Z,60.26
2023-01-06T20:21:52.762Z,60.83
2023-01-06T20:24:20.203Z,60.96
2023-01-06T20:26:47.874Z,60.60
2023-01-06T20:29:15.286Z,59.99
2023-01-06T20:31:43.011Z,60.25
2023-01-06T20:34:10.809Z,59.85
2023-01-06T20:36:38.251Z,60.27
2023-01-06T20:39:05.622Z,59.26
2023-01-06T20:41:33.341Z,59.01
2023-01-06T20:44:00.727Z,59.00
2023-01-06T20:46:28.106Z,59.33
2023-01-06T20:48:55.790Z,59.81
2023-01-06T20:51:23.254Z,59.52
2023-01-06T20:53:50.730Z,59.75
2023-01-06T20:56:18.384Z,59.64
2023-01-06T20:58:45.779Z,59.34
2023-01-06T21:01:13.317Z,60.15
2023-01-06T21:03:41.139Z,59.50
2023-01-06T21:06:08.518Z,59.43
2023-01-06T21:08:35.910Z,59.36
2023-01-06T21:11:03.646Z,59.79
2023-01-06T21:13:31.051Z,60.31
2023-01-06T21:15:58.473Z,60.26
2023-01-06T21:18:26.117Z,60.69
2023-01-06T21:20:53.575Z,60.64
2023-01-06T21:23:20.995Z,60.31
2023-01-06T21:25:48.663Z,59.86
2023-01-06T21:28:16.077Z,59.74
2023-01-06T21:30:43.524Z,59.79
2023-01-06T21:33:11.226Z,59.63
2023-01-06T21:35:38.694Z,59.81
2023-01-06T21:38:06.112Z,60.04
2023-01-06T21:40:33.801Z,59.78
2023-01-06T21:43:09.817Z,60.95
2023-01-06T21:45:39.584Z,61.38
2023-01-06T21:48:07.883Z,60.34
2023-01-06T21:50:41.544Z,61.09
2023-01-06T21:53:10.283Z,60.98
2023-01-06T21:55:37.826Z,61.10
2023-01-06T21:58:05.492Z,60.29
2023-01-06T22:00:33.132Z,60.83
2023-01-06T22:03:00.926Z,60.54
2023-01-06T22:05:28.599Z,60.48
2023-01-06T22:07:56.100Z,60.18
2023-01-06T22:10:24.879Z,59.90
2023-01-06T22:12:53.718Z,60.15
2023-01-06T22:15:21.951Z,60.66
2023-01-06T22:17:50.270Z,60.50
2023-01-06T22:20:18.005Z,60.85
2023-01-06T22:22:46.440Z,60.81
2023-01-06T22:25:14.104Z,60.30
2023-01-06T22:27:41.451Z,60.38
2023-01-06T22:30:09.477Z,60.18
2023-01-06T22:32:44.556Z,60.57
2023-01-06T22:35:13.348Z,61.81
2023-01-06T22:37:41.899Z,64.76
2023-01-06T22:40:10.322Z,62.24
2023-01-06T22:42:37.785Z,61.30
2023-01-06T22:45:06.282Z,60.67
2023-01-06T22:47:33.810Z,60.69
2023-01-06T22:50:02.482Z,61.09
2023-01-06T22:52:30.277Z,60.87
2023-01-06T22:54:57.623Z,61.19
2023-01-06T22:57:25.139Z,60.59
2023-01-06T22:59:52.805Z,60.93
2023-01-06T23:02:20.307Z,60.71
2023-01-06T23:04:47.781Z,60.75
2023-01-06T23:07:15.942Z,61.15
2023-01-06T23:09:43.377Z,61.04
2023-01-06T23:12:10.803Z,61.15
2023-01-06T23:14:38.471Z,61.25
2023-01-06T23:17:05.854Z,61.05
2023-01-06T23:19:33.260Z,60.84
2023-01-06T23:22:00.931Z,60.64
2023-01-06T23:24:28.430Z,60.85
2023-01-06T23:26:55.796Z,60.65
2023-01-06T23:29:23.434Z,60.78
2023-01-06T23:31:50.876Z,60.46
2023-01-06T23:34:18.957Z,60.80
2023-01-06T23:36:47.549Z,61.06
2023-01-06T23:39:17.029Z,60.75
2023-01-06T23:41:44.495Z,61.16
2023-01-06T23:44:14.927Z,61.86
2023-01-06T23:46:42.758Z,61.84
2023-01-06T23:49:12.445Z,61.66
2023-01-06T23:51:40.201Z,61.28
2023-01-06T23:54:08.312Z,60.96
2023-01-06T23:56:36.871Z,60.57
2023-01-06T23:59:06.978Z,60.52
